الصفحة الرئيسية
METAR-TAF:

METAR-TAF

مطار :

مطار طانطان الشاطئ الأبيض

طانطان, المغرب

دائرة عرض: 28-26-54N, خط طول: 11-09-41W, ارتفاع: 199 متر

مراقبة الطقس الحالي

تاريخ ووقت الإصدار 24 دقيقة قبل الساعة 12:00UTC
ريح 7 عقدة من الشمال الشرقي
درجة الحرارة 19°درجة مئوية
الرطوبة 64%
ضغط 1021 hPa
الرؤية 10 كم أو أكثر
الغيوم لا تقل 1500 م ولا وجود لمزنة ركامية السحاب الأسود

METAR: GMAT 261200Z 04007KT CAVOK 19/12 Q1021 NOSIG

زمن: 13:24 (12:24 UTC)


TAF: مفقودة

أرصاد الطقس والتوقعات من أكثر من 4000 مطار (تقارير الطقس للمطار METAR والتنبؤ بالطقس بالمطارTAF).

المحطات المتاحة هي النقط الصفراء والحمراء على الخريطة.

حرك المؤشر فوق النقطة لمعرفة اسم المحطة.

ثم انقر لمعرفة أرصاد وتوقعات الطقس.

لتغيير الخارطة: اضغط على الأزرار الخضراء مع رمز الصليب الأسود للتكبير. على الزر الأخضر مع شرطة للتصغير، أو على الأسهم الخضراء للخرائط المجاورة.


METAR-TAF: